createdAt,value
2022-10-05T00:01:46.213Z,44.49
2022-10-05T00:04:17.142Z,45.29
2022-10-05T00:06:46.427Z,44.74
2022-10-05T00:09:17.917Z,45.70
2022-10-05T00:11:45.716Z,46.09
2022-10-05T00:14:19.917Z,47.12
2022-10-05T00:16:47.630Z,46.04
2022-10-05T00:19:22.158Z,44.98
2022-10-05T00:21:49.260Z,44.92
2022-10-05T00:24:20.465Z,45.46
2022-10-05T00:26:47.948Z,45.59
2022-10-05T00:29:22.139Z,44.81
2022-10-05T00:31:50.676Z,44.68
2022-10-05T00:34:18.458Z,44.63
2022-10-05T00:36:46.339Z,44.81
2022-10-05T00:39:13.998Z,45.08
2022-10-05T00:42:00.094Z,45.28
2022-10-05T00:44:43.581Z,45.12
2022-10-05T00:47:35.563Z,45.39
2022-10-05T00:50:23.139Z,45.40
2022-10-05T00:53:01.099Z,45.46
2022-10-05T00:55:41.079Z,45.73
2022-10-05T00:58:22.379Z,45.69
2022-10-05T01:01:00.068Z,45.67
2022-10-05T01:03:39.499Z,45.90
2022-10-05T01:06:18.519Z,46.00
2022-10-05T01:08:58.260Z,45.81
2022-10-05T01:11:36.585Z,44.78
2022-10-05T01:14:17.340Z,45.57
2022-10-05T01:16:53.218Z,44.76
2022-10-05T01:19:41.978Z,44.92
2022-10-05T01:22:19.641Z,45.16
2022-10-05T01:25:07.941Z,45.15
2022-10-05T01:27:51.038Z,44.26
2022-10-05T01:30:21.423Z,44.74
2022-10-05T01:32:59.338Z,44.00
2022-10-05T01:35:43.219Z,44.12
2022-10-05T01:38:24.841Z,44.64
2022-10-05T01:41:04.800Z,44.52
2022-10-05T01:43:44.638Z,45.20
2022-10-05T01:46:25.279Z,45.16
2022-10-05T01:49:14.673Z,45.11
2022-10-05T01:51:55.768Z,44.33
2022-10-05T01:54:37.678Z,44.01
2022-10-05T01:57:15.539Z,44.49
2022-10-05T02:00:01.541Z,55.31
2022-10-05T02:02:34.836Z,56.14
2022-10-05T02:05:08.328Z,55.37
2022-10-05T02:07:44.618Z,51.32
2022-10-05T02:10:24.159Z,52.44
2022-10-05T02:12:58.818Z,50.41
2022-10-05T02:15:37.453Z,50.13
2022-10-05T02:18:12.578Z,49.58
2022-10-05T02:20:43.560Z,47.68
2022-10-05T02:23:17.957Z,48.54
2022-10-05T02:25:49.840Z,48.59
2022-10-05T02:28:25.369Z,47.62
2022-10-05T02:31:00.782Z,46.56
2022-10-05T02:33:30.217Z,46.68
2022-10-05T02:36:01.079Z,47.12
2022-10-05T02:38:40.159Z,46.86
2022-10-05T02:41:17.577Z,46.31
2022-10-05T02:43:53.741Z,45.59
2022-10-05T02:46:34.455Z,46.48
2022-10-05T02:49:15.522Z,46.15
2022-10-05T02:51:55.559Z,44.17
2022-10-05T02:54:40.298Z,45.75
2022-10-05T02:57:16.897Z,46.18
2022-10-05T02:59:54.045Z,44.21
2022-10-05T03:02:29.524Z,45.25
2022-10-05T03:05:09.761Z,44.91
2022-10-05T03:07:47.897Z,45.06
2022-10-05T03:10:26.939Z,44.77
2022-10-05T03:13:02.338Z,44.50
2022-10-05T03:16:09.726Z,44.73
2022-10-05T03:18:53.839Z,45.06
2022-10-05T03:21:38.862Z,44.58
2022-10-05T03:24:25.120Z,44.80
2022-10-05T03:27:02.801Z,44.64
2022-10-05T03:29:40.719Z,45.29
2022-10-05T03:32:24.004Z,45.37
2022-10-05T03:35:01.899Z,45.05
2022-10-05T03:37:39.811Z,45.28
2022-10-05T03:40:20.539Z,45.42
2022-10-05T03:43:06.161Z,44.70
2022-10-05T03:45:44.620Z,44.92
2022-10-05T03:48:18.720Z,46.34
2022-10-05T03:51:01.439Z,45.57
2022-10-05T03:53:37.838Z,46.04
2022-10-05T03:56:12.239Z,45.56
2022-10-05T03:58:45.358Z,45.55
2022-10-05T04:01:19.412Z,45.36
2022-10-05T04:03:52.059Z,45.43
2022-10-05T04:06:26.698Z,45.03
2022-10-05T04:09:00.579Z,44.99
2022-10-05T04:11:33.620Z,45.28
2022-10-05T04:14:07.341Z,45.77
2022-10-05T04:16:41.359Z,44.67
2022-10-05T04:19:18.380Z,45.17
2022-10-05T04:21:52.005Z,44.96
2022-10-05T04:24:28.858Z,45.29
2022-10-05T04:27:03.818Z,44.98
2022-10-05T04:29:38.298Z,44.85
2022-10-05T04:32:28.640Z,44.66
2022-10-05T04:35:44.980Z,45.21
2022-10-05T04:38:37.700Z,45.09
2022-10-05T04:41:25.641Z,44.76
2022-10-05T04:44:13.164Z,44.79
2022-10-05T04:47:00.191Z,44.90
2022-10-05T04:49:54.158Z,44.88
2022-10-05T04:52:30.822Z,45.15
2022-10-05T04:55:12.539Z,44.84
2022-10-05T04:57:49.738Z,44.45
2022-10-05T05:00:31.784Z,44.69
2022-10-05T05:03:32.183Z,44.71
2022-10-05T05:06:18.725Z,44.63
2022-10-05T05:09:05.422Z,44.86
2022-10-05T05:11:52.459Z,44.89
2022-10-05T05:14:49.140Z,44.29
2022-10-05T05:17:36.286Z,44.27
2022-10-05T05:20:19.280Z,43.76
2022-10-05T05:22:54.370Z,44.15
2022-10-05T05:25:38.798Z,44.56
2022-10-05T05:28:23.399Z,43.51
2022-10-05T05:31:00.946Z,43.71
2022-10-05T05:33:42.481Z,43.28
2022-10-05T05:36:45.132Z,43.56
2022-10-05T05:39:24.160Z,43.90
2022-10-05T05:42:00.391Z,44.00
2022-10-05T05:44:38.722Z,43.25
2022-10-05T05:47:19.728Z,43.25
2022-10-05T05:50:07.402Z,43.45
2022-10-05T05:52:43.101Z,43.82
2022-10-05T05:55:21.262Z,43.68
2022-10-05T05:57:56.498Z,43.44
2022-10-05T06:00:34.685Z,42.26
2022-10-05T06:03:11.689Z,43.04
2022-10-05T06:05:44.861Z,43.97
2022-10-05T06:08:22.622Z,43.60
2022-10-05T06:10:55.900Z,43.74
2022-10-05T06:13:29.199Z,43.79
2022-10-05T06:16:05.385Z,43.30
2022-10-05T06:18:34.459Z,43.02
2022-10-05T06:21:11.339Z,42.13
2022-10-05T06:23:47.689Z,42.58
2022-10-05T06:26:36.881Z,41.50
2022-10-05T06:29:11.502Z,39.29
2022-10-05T06:32:05.054Z,39.11
2022-10-05T06:34:53.579Z,38.36
2022-10-05T06:37:33.198Z,38.30
2022-10-05T06:40:16.421Z,37.92
2022-10-05T06:43:09.179Z,38.84
2022-10-05T06:45:51.721Z,38.32
2022-10-05T06:48:35.379Z,38.59
2022-10-05T06:51:15.579Z,37.82
2022-10-05T06:53:54.502Z,37.81
2022-10-05T06:56:31.798Z,37.61
2022-10-05T06:59:09.800Z,37.61
2022-10-05T07:01:52.256Z,37.54
2022-10-05T07:04:42.838Z,37.26
2022-10-05T07:07:21.519Z,37.10
2022-10-05T07:10:03.445Z,37.20
2022-10-05T07:12:58.959Z,37.03
2022-10-05T07:15:41.238Z,36.52
2022-10-05T07:18:31.779Z,36.66
2022-10-05T07:21:14.758Z,36.14
2022-10-05T07:24:01.400Z,36.44
2022-10-05T07:26:37.439Z,36.42
2022-10-05T07:29:29.681Z,36.14
2022-10-05T07:32:08.842Z,35.65
2022-10-05T07:34:50.439Z,35.77
2022-10-05T07:37:29.699Z,35.68
2022-10-05T07:40:10.719Z,35.29
2022-10-05T07:42:55.178Z,35.14
2022-10-05T07:45:29.638Z,33.96
2022-10-05T07:48:01.980Z,35.24
2022-10-05T07:50:37.536Z,33.97
2022-10-05T07:53:15.561Z,35.36
2022-10-05T07:55:51.962Z,34.69
2022-10-05T07:58:26.486Z,34.77
2022-10-05T08:01:10.162Z,35.14
2022-10-05T08:03:48.866Z,35.06
2022-10-05T08:06:43.002Z,35.06
2022-10-05T08:09:28.320Z,35.28
2022-10-05T08:12:07.579Z,34.28
2022-10-05T08:14:46.557Z,34.20
2022-10-05T08:17:26.539Z,34.13
2022-10-05T08:20:06.579Z,34.53
2022-10-05T08:22:46.138Z,34.87
2022-10-05T08:25:24.721Z,31.90
2022-10-05T08:28:00.189Z,34.20
2022-10-05T08:30:34.219Z,34.34
2022-10-05T08:33:10.620Z,34.10
2022-10-05T08:35:42.178Z,33.76
2022-10-05T08:38:14.786Z,34.06
2022-10-05T08:41:11.938Z,31.86
2022-10-05T08:44:07.060Z,33.39
2022-10-05T08:47:07.102Z,33.65
2022-10-05T08:50:06.781Z,32.39
2022-10-05T08:52:56.701Z,32.58
2022-10-05T08:55:46.282Z,32.15
2022-10-05T08:58:51.380Z,32.26
2022-10-05T09:01:31.845Z,32.93
2022-10-05T09:04:23.341Z,33.02
2022-10-05T09:07:15.520Z,32.82
2022-10-05T09:10:25.121Z,31.66
2022-10-05T09:13:23.981Z,32.50
2022-10-05T09:16:19.553Z,34.26
2022-10-05T09:19:26.681Z,33.90
2022-10-05T09:22:06.100Z,33.45
2022-10-05T09:24:56.303Z,33.26
2022-10-05T09:27:37.000Z,34.02
2022-10-05T09:30:37.683Z,32.77
2022-10-05T09:33:37.441Z,32.89
2022-10-05T09:36:47.275Z,32.88
2022-10-05T09:39:43.821Z,32.82
2022-10-05T09:42:49.941Z,32.98
2022-10-05T09:45:37.641Z,32.70
2022-10-05T09:48:40.262Z,32.94
2022-10-05T09:51:44.720Z,32.96
2022-10-05T09:54:59.864Z,31.33
2022-10-05T09:57:53.348Z,31.34
2022-10-05T10:00:36.202Z,32.71
2022-10-05T10:03:47.123Z,32.27
2022-10-05T10:06:34.942Z,33.05
2022-10-05T10:09:28.422Z,32.44
2022-10-05T10:12:25.447Z,33.00
2022-10-05T10:15:40.014Z,31.61
2022-10-05T10:18:45.281Z,32.92
2022-10-05T10:21:51.921Z,32.53
2022-10-05T10:24:43.056Z,32.44
2022-10-05T10:27:46.274Z,29.99
2022-10-05T10:30:53.426Z,31.35
2022-10-05T10:33:54.761Z,32.35
2022-10-05T10:36:46.352Z,32.95
2022-10-05T10:39:30.566Z,33.18
2022-10-05T10:42:26.253Z,32.39
2022-10-05T10:45:12.829Z,32.76
2022-10-05T10:47:55.421Z,32.29
2022-10-05T10:50:53.010Z,33.25
2022-10-05T10:54:02.687Z,29.17
2022-10-05T10:56:48.288Z,31.37
2022-10-05T10:59:51.341Z,32.18
2022-10-05T11:02:48.976Z,31.95
2022-10-05T11:05:36.231Z,29.33
2022-10-05T11:08:31.690Z,30.73
2022-10-05T11:11:33.689Z,31.36
2022-10-05T11:14:34.249Z,31.63
2022-10-05T11:17:25.789Z,31.82
2022-10-05T11:20:25.668Z,31.75
2022-10-05T11:23:03.349Z,30.33
2022-10-05T11:26:04.490Z,30.53
2022-10-05T11:29:11.430Z,30.83
2022-10-05T11:32:14.809Z,31.04
2022-10-05T11:35:12.989Z,33.08
2022-10-05T11:38:03.769Z,32.45
2022-10-05T11:41:10.732Z,31.79
2022-10-05T11:44:12.749Z,30.73
2022-10-05T11:46:51.654Z,31.31
2022-10-05T11:49:40.511Z,32.17
2022-10-05T11:52:18.470Z,31.71
2022-10-05T11:55:17.391Z,31.51
2022-10-05T11:57:52.869Z,31.22
2022-10-05T12:00:22.790Z,32.23
2022-10-05T12:03:12.163Z,32.73
2022-10-05T12:05:56.913Z,31.34
2022-10-05T12:08:37.809Z,31.47
2022-10-05T12:11:26.371Z,31.53
2022-10-05T12:14:01.989Z,31.83
2022-10-05T12:16:40.048Z,31.46
2022-10-05T12:19:17.510Z,33.02
2022-10-05T12:21:56.089Z,32.58
2022-10-05T12:24:46.309Z,33.36
2022-10-05T12:27:18.869Z,33.56
2022-10-05T12:29:56.531Z,32.84
2022-10-05T12:32:31.510Z,32.41
2022-10-05T12:35:08.310Z,32.32
2022-10-05T12:37:47.932Z,33.58
2022-10-05T12:40:27.653Z,32.71
2022-10-05T12:43:14.150Z,34.01
2022-10-05T12:45:59.846Z,34.13
2022-10-05T12:48:53.889Z,34.01
2022-10-05T12:51:32.569Z,33.45
2022-10-05T12:54:12.118Z,34.08
2022-10-05T12:56:52.350Z,34.28
2022-10-05T12:59:35.968Z,33.03
2022-10-05T13:02:19.152Z,33.62
2022-10-05T13:04:57.270Z,33.98
2022-10-05T13:07:56.570Z,33.05
2022-10-05T13:10:37.730Z,33.85
2022-10-05T13:13:27.629Z,32.49
2022-10-05T13:16:09.187Z,33.32
2022-10-05T13:18:51.871Z,33.97
2022-10-05T13:21:27.219Z,34.03
2022-10-05T13:24:05.270Z,33.64
2022-10-05T13:26:37.615Z,33.49
2022-10-05T13:29:19.758Z,33.81
2022-10-05T13:31:51.560Z,33.58
2022-10-05T13:34:30.171Z,33.57
2022-10-05T13:37:07.795Z,33.26
2022-10-05T13:39:59.180Z,32.64
2022-10-05T13:42:37.853Z,33.16
2022-10-05T13:45:17.275Z,33.79
2022-10-05T13:48:02.076Z,32.54
2022-10-05T13:50:33.699Z,33.76
2022-10-05T13:53:13.930Z,33.08
2022-10-05T13:55:47.734Z,33.79
2022-10-05T13:58:25.051Z,34.21
2022-10-05T14:00:57.976Z,33.75
2022-10-05T14:03:29.698Z,33.70
2022-10-05T14:05:58.873Z,33.49
2022-10-05T14:08:29.954Z,33.72
2022-10-05T14:10:57.178Z,33.03
2022-10-05T14:13:27.505Z,33.04
2022-10-05T14:16:02.808Z,32.43
2022-10-05T14:18:32.271Z,33.22
2022-10-05T14:21:16.829Z,33.55
2022-10-05T14:23:44.561Z,33.20
2022-10-05T14:26:20.527Z,33.94
2022-10-05T14:29:00.573Z,32.86
2022-10-05T14:31:33.287Z,33.35
2022-10-05T14:34:32.717Z,32.92
2022-10-05T14:37:04.513Z,32.04
2022-10-05T14:39:35.156Z,32.78
2022-10-05T14:42:18.596Z,32.60
2022-10-05T14:44:46.576Z,32.24
2022-10-05T14:47:22.868Z,31.83
2022-10-05T14:49:53.535Z,32.49
2022-10-05T14:52:31.315Z,31.84
2022-10-05T14:55:07.277Z,32.54
2022-10-05T14:57:47.217Z,32.32
2022-10-05T15:00:16.952Z,31.06
2022-10-05T15:03:09.649Z,31.11
2022-10-05T15:05:45.092Z,32.44
2022-10-05T15:08:33.430Z,31.65
2022-10-05T15:11:06.471Z,31.45
2022-10-05T15:13:39.032Z,32.57
2022-10-05T15:16:18.651Z,32.35
2022-10-05T15:18:57.331Z,31.64
2022-10-05T15:21:39.236Z,31.35
2022-10-05T15:24:12.429Z,32.43
2022-10-05T15:26:49.531Z,32.21
2022-10-05T15:29:42.950Z,32.44
2022-10-05T15:32:33.930Z,32.19
2022-10-05T15:35:37.670Z,31.66
2022-10-05T15:38:19.869Z,31.58
2022-10-05T15:40:55.750Z,31.72
2022-10-05T15:43:23.931Z,32.26
2022-10-05T15:46:03.871Z,30.88
2022-10-05T15:48:45.755Z,30.80
2022-10-05T15:51:30.268Z,31.41
2022-10-05T15:54:06.904Z,31.01
2022-10-05T15:56:41.072Z,30.98
2022-10-05T15:59:24.192Z,30.78
2022-10-05T16:01:58.527Z,30.89
2022-10-05T16:04:39.794Z,30.31
2022-10-05T16:07:18.995Z,30.77
2022-10-05T16:10:00.591Z,31.29
2022-10-05T16:12:42.951Z,31.63
2022-10-05T16:15:21.794Z,31.97
2022-10-05T16:18:07.174Z,31.85
2022-10-05T16:20:48.533Z,31.97
2022-10-05T16:23:27.375Z,32.33
2022-10-05T16:26:10.671Z,32.95
2022-10-05T16:28:53.739Z,32.88
2022-10-05T16:31:31.105Z,33.16
2022-10-05T16:34:14.892Z,33.49
2022-10-05T16:36:55.532Z,33.71
2022-10-05T16:39:49.690Z,33.85
2022-10-05T16:42:35.051Z,33.59
2022-10-05T16:45:20.853Z,33.45
2022-10-05T16:47:59.396Z,33.74
2022-10-05T16:50:35.456Z,33.53
2022-10-05T16:53:12.182Z,33.88
2022-10-05T16:55:47.612Z,33.93
2022-10-05T16:58:23.895Z,34.27
2022-10-05T17:01:08.592Z,33.81
2022-10-05T17:03:58.233Z,34.00
2022-10-05T17:07:03.555Z,34.13
2022-10-05T17:10:09.078Z,34.38
2022-10-05T17:12:53.192Z,34.15
2022-10-05T17:15:36.526Z,34.60
2022-10-05T17:18:25.155Z,35.31
2022-10-05T17:21:01.892Z,35.62
2022-10-05T17:23:37.415Z,38.12
2022-10-05T17:26:39.952Z,36.95
2022-10-05T17:29:25.334Z,34.98
2022-10-05T17:32:09.631Z,35.37
2022-10-05T17:34:38.810Z,36.80
2022-10-05T17:37:19.053Z,35.28
2022-10-05T17:39:50.346Z,35.48
2022-10-05T17:42:46.457Z,36.19
2022-10-05T17:45:56.278Z,36.70
2022-10-05T17:48:59.573Z,36.66
2022-10-05T17:52:02.530Z,36.64
2022-10-05T17:54:32.265Z,37.81
2022-10-05T17:57:23.939Z,37.57
2022-10-05T18:00:00.353Z,37.93
2022-10-05T18:02:43.120Z,38.63
2022-10-05T18:05:22.949Z,38.80
2022-10-05T18:08:31.833Z,39.08
2022-10-05T18:11:33.364Z,39.35
2022-10-05T18:14:19.209Z,39.56
2022-10-05T18:17:01.067Z,40.00
2022-10-05T18:19:31.810Z,39.69
2022-10-05T18:22:27.091Z,40.02
2022-10-05T18:25:02.437Z,40.43
2022-10-05T18:28:00.977Z,40.16
2022-10-05T18:30:40.953Z,39.43
2022-10-05T18:33:37.369Z,39.69
2022-10-05T18:36:22.394Z,40.00
2022-10-05T18:39:03.308Z,40.15
2022-10-05T18:41:51.526Z,40.28
2022-10-05T18:44:35.740Z,40.50
2022-10-05T18:47:12.942Z,40.78
2022-10-05T18:50:07.264Z,41.06
2022-10-05T18:52:55.182Z,41.30
2022-10-05T18:55:33.001Z,41.38
2022-10-05T18:58:17.122Z,41.68
2022-10-05T19:01:14.499Z,42.27
2022-10-05T19:03:59.477Z,41.58
2022-10-05T19:06:31.616Z,41.46
2022-10-05T19:09:18.330Z,41.91
2022-10-05T19:11:59.689Z,42.03
2022-10-05T19:14:37.750Z,41.62
2022-10-05T19:17:23.269Z,41.75
2022-10-05T19:20:17.146Z,41.64
2022-10-05T19:23:07.971Z,41.57
2022-10-05T19:25:46.469Z,41.85
2022-10-05T19:28:29.018Z,41.52
2022-10-05T19:31:24.986Z,42.01
2022-10-05T19:34:11.945Z,41.92
2022-10-05T19:36:53.464Z,41.40
2022-10-05T19:39:33.326Z,41.76
2022-10-05T19:42:24.227Z,41.27
2022-10-05T19:45:10.047Z,41.99
2022-10-05T19:47:52.288Z,41.56
2022-10-05T19:50:27.525Z,41.72
2022-10-05T19:53:02.184Z,42.03
2022-10-05T19:55:36.025Z,42.36
2022-10-05T19:58:19.424Z,42.21
2022-10-05T20:00:58.865Z,41.97
2022-10-05T20:03:28.284Z,42.06
2022-10-05T20:05:57.758Z,42.16
2022-10-05T20:08:27.381Z,42.11
2022-10-05T20:11:06.888Z,42.50
2022-10-05T20:13:36.584Z,42.45
2022-10-05T20:16:09.900Z,42.56
2022-10-05T20:18:39.605Z,42.40
2022-10-05T20:21:06.964Z,42.57
2022-10-05T20:23:34.043Z,42.61
2022-10-05T20:26:01.204Z,42.85
2022-10-05T20:28:32.211Z,43.41
2022-10-05T20:31:01.350Z,42.98
2022-10-05T20:33:29.786Z,43.34
2022-10-05T20:35:57.007Z,43.48
2022-10-05T20:38:24.380Z,43.64
2022-10-05T20:40:51.667Z,43.27
2022-10-05T20:43:18.873Z,43.64
2022-10-05T20:45:46.017Z,43.86
2022-10-05T20:48:15.318Z,43.99
2022-10-05T20:50:42.436Z,44.12
2022-10-05T20:53:11.865Z,43.90
2022-10-05T20:55:39.359Z,44.35
2022-10-05T20:58:06.577Z,44.56
2022-10-05T21:00:34.122Z,44.40
2022-10-05T21:03:01.423Z,44.48
2022-10-05T21:05:30.999Z,44.45
2022-10-05T21:07:58.173Z,44.36
2022-10-05T21:10:25.460Z,44.47
2022-10-05T21:12:52.563Z,44.68
2022-10-05T21:15:19.733Z,44.96
2022-10-05T21:17:46.971Z,44.86
2022-10-05T21:20:14.192Z,45.21
2022-10-05T21:22:42.754Z,45.02
2022-10-05T21:25:10.052Z,45.48
2022-10-05T21:27:37.212Z,45.45
2022-10-05T21:30:04.934Z,45.64
2022-10-05T21:32:32.062Z,45.73
2022-10-05T21:34:59.794Z,45.58
2022-10-05T21:37:26.971Z,46.25
2022-10-05T21:39:55.391Z,46.03
2022-10-05T21:42:23.565Z,46.03
2022-10-05T21:44:50.912Z,46.13
2022-10-05T21:47:17.972Z,46.43
2022-10-05T21:49:45.113Z,46.57
2022-10-05T21:52:13.245Z,46.35
2022-10-05T21:54:40.468Z,46.62
2022-10-05T21:57:12.985Z,46.75
2022-10-05T21:59:40.885Z,46.81
2022-10-05T22:02:07.932Z,46.92
2022-10-05T22:04:35.026Z,46.98
2022-10-05T22:07:06.270Z,46.84
2022-10-05T22:09:33.469Z,46.94
2022-10-05T22:12:00.685Z,47.14
2022-10-05T22:14:29.226Z,47.39
2022-10-05T22:16:56.348Z,47.35
2022-10-05T22:19:23.727Z,47.16
2022-10-05T22:21:50.806Z,47.49
2022-10-05T22:24:18.265Z,47.51
2022-10-05T22:26:49.287Z,47.40
2022-10-05T22:29:17.406Z,47.76
2022-10-05T22:31:47.396Z,47.36
2022-10-05T22:34:14.605Z,47.71
2022-10-05T22:36:41.704Z,47.47
2022-10-05T22:39:09.078Z,47.69
2022-10-05T22:41:36.189Z,47.79
2022-10-05T22:44:03.327Z,47.78
2022-10-05T22:46:30.724Z,47.62
2022-10-05T22:48:59.284Z,47.94
2022-10-05T22:51:26.445Z,48.12
2022-10-05T22:53:53.646Z,47.97
2022-10-05T22:56:20.787Z,48.00
2022-10-05T22:58:47.924Z,47.91
2022-10-05T23:01:17.930Z,47.83
2022-10-05T23:03:45.846Z,47.87
2022-10-05T23:06:16.366Z,47.96
2022-10-05T23:08:44.804Z,47.83
2022-10-05T23:11:14.478Z,47.95
2022-10-05T23:13:42.168Z,47.87
2022-10-05T23:16:11.916Z,48.34
2022-10-05T23:18:40.027Z,48.07
2022-10-05T23:21:09.667Z,48.21
2022-10-05T23:23:40.373Z,48.25
2022-10-05T23:26:10.164Z,48.30
2022-10-05T23:28:39.685Z,48.45
2022-10-05T23:31:08.816Z,48.39
2022-10-05T23:33:36.066Z,48.57
2022-10-05T23:36:06.365Z,48.53
2022-10-05T23:38:34.746Z,48.81
2022-10-05T23:41:04.525Z,48.60
2022-10-05T23:43:32.644Z,48.73
2022-10-05T23:46:00.737Z,48.45
2022-10-05T23:48:28.515Z,48.77
2022-10-05T23:50:56.189Z,48.65
2022-10-05T23:53:23.970Z,48.50
2022-10-05T23:55:51.606Z,48.66
2022-10-05T23:58:20.845Z,48.60
